Time;durP1;ratioP1;P1;durP2;ratioP2;P2;SDS_P1;SDS_P2;PMS_P1;PMS_P2;Temp;Humidity;BMP_temperature;BMP_pressure;BME280_temperature;BME280_humidity;BME280_pressure;Samples;Min_cycle;Max_cycle;Signal;HPM_P1;HPM_P2
2022/10/27 00:00:39;;;;;;;45.72;27.80;;;10.70;99.90;;;;;;4994916;28;20093;-67
2022/10/27 00:03:09;;;;;;;52.40;28.63;;;10.70;99.90;;;;;;4994664;28;20046;-68
2022/10/27 00:05:36;;;;;;;44.72;27.52;;;10.70;99.90;;;;;;4993914;28;20112;-68
2022/10/27 00:08:03;;;;;;;44.17;26.00;;;10.60;99.90;;;;;;4994913;28;20112;-68
2022/10/27 00:10:30;;;;;;;45.63;24.73;;;10.60;99.90;;;;;;4994433;28;20049;-69
2022/10/27 00:12:58;;;;;;;37.92;21.52;;;10.60;99.90;;;;;;4994757;28;20046;-68
2022/10/27 00:15:26;;;;;;;34.97;19.02;;;10.60;99.90;;;;;;4993926;28;20314;-67
2022/10/27 00:17:55;;;;;;;35.80;20.42;;;10.50;99.90;;;;;;4994191;28;20050;-68
2022/10/27 00:20:22;;;;;;;33.17;18.90;;;10.50;99.90;;;;;;4994353;28;20034;-68
2022/10/27 00:22:49;;;;;;;31.48;18.52;;;10.50;99.90;;;;;;4993949;28;20053;-68
2022/10/27 00:25:17;;;;;;;34.45;19.38;;;10.40;99.90;;;;;;4994213;28;20038;-68
2022/10/27 00:27:44;;;;;;;41.67;20.35;;;10.30;99.90;;;;;;4976051;28;20132;-68
2022/10/27 00:30:12;;;;;;;30.73;19.23;;;10.20;99.90;;;;;;4994217;28;20046;-68
2022/10/27 00:32:40;;;;;;;32.67;18.08;;;10.20;99.90;;;;;;4994163;28;20130;-68
2022/10/27 00:35:10;;;;;;;34.08;18.40;;;10.20;99.90;;;;;;4993860;28;20081;-68
2022/10/27 00:37:37;;;;;;;28.42;17.60;;;10.20;99.90;;;;;;4993438;28;20046;-68
2022/10/27 00:40:05;;;;;;;26.70;17.10;;;10.10;99.90;;;;;;4993095;28;20042;-68
2022/10/27 00:42:33;;;;;;;29.13;17.05;;;10.10;99.90;;;;;;4993794;28;20426;-68
2022/10/27 00:45:00;;;;;;;31.42;17.60;;;10.10;99.90;;;;;;4993913;28;20039;-68
2022/10/27 00:47:32;;;;;;;39.15;19.30;;;10.10;99.90;;;;;;4993180;28;20056;-68
2022/10/27 00:50:03;;;;;;;36.38;19.35;;;10.00;99.90;;;;;;4993723;28;20050;-68
2022/10/27 00:52:37;;;;;;;38.45;19.77;;;10.00;99.90;;;;;;4993517;28;20522;-69
2022/10/27 00:55:09;;;;;;;30.58;18.40;;;10.00;99.90;;;;;;4993332;28;20042;-68
2022/10/27 00:57:38;;;;;;;32.05;16.27;;;10.00;99.90;;;;;;4993140;28;20499;-69
2022/10/27 01:00:07;;;;;;;35.25;18.50;;;10.00;99.90;;;;;;4993502;28;20034;-68
2022/10/27 01:02:36;;;;;;;33.38;20.27;;;10.00;99.90;;;;;;4993647;28;20072;-68
2022/10/27 01:05:08;;;;;;;31.90;18.02;;;10.00;99.90;;;;;;4991577;28;20467;-69
2022/10/27 01:07:39;;;;;;;38.72;20.05;;;10.00;99.90;;;;;;4972438;28;20070;-68
2022/10/27 01:10:07;;;;;;;33.90;19.38;;;10.00;99.90;;;;;;4974080;28;20043;-68
2022/10/27 01:12:35;;;;;;;30.30;19.00;;;10.00;99.90;;;;;;4973711;28;20051;-69
2022/10/27 01:15:03;;;;;;;34.80;18.98;;;10.00;99.90;;;;;;4973753;28;20039;-68
2022/10/27 01:17:41;;;;;;;31.80;19.48;;;9.90;99.90;;;;;;4986129;28;20046;-68
2022/10/27 01:20:45;;;;;;;33.53;20.80;;;9.90;99.90;;;;;;4993107;28;20039;-68
2022/10/27 01:23:23;;;;;;;31.88;17.58;;;9.80;99.90;;;;;;4974144;28;20058;-68
2022/10/27 01:26:36;;;;;;;27.85;16.30;;;9.80;99.90;;;;;;4973513;28;20043;-68
2022/10/27 01:29:46;;;;;;;30.90;17.23;;;9.70;99.90;;;;;;4973826;28;20038;-68
2022/10/27 01:32:26;;;;;;;27.00;16.65;;;9.70;99.90;;;;;;4942110;28;20047;-68
2022/10/27 01:35:02;;;;;;;30.33;16.90;;;9.70;99.90;;;;;;4961295;28;20065;-68
2022/10/27 01:37:36;;;;;;;24.80;15.90;;;9.70;99.90;;;;;;4992268;28;20052;-68
2022/10/27 01:40:09;;;;;;;29.30;15.18;;;9.70;99.90;;;;;;4993319;28;20046;-68
2022/10/27 01:42:43;;;;;;;29.02;16.25;;;9.70;99.90;;;;;;4992549;28;20126;-68
2022/10/27 01:45:12;;;;;;;32.00;15.85;;;9.60;99.90;;;;;;4992727;28;20034;-68
2022/10/27 01:47:41;;;;;;;26.35;16.63;;;9.60;99.90;;;;;;4974788;28;20047;-68
2022/10/27 01:50:09;;;;;;;33.60;17.38;;;9.60;99.90;;;;;;4992199;28;20045;-68
2022/10/27 01:52:46;;;;;;;29.63;17.27;;;9.60;99.90;;;;;;4992527;28;20121;-69
2022/10/27 01:55:20;;;;;;;32.05;18.00;;;9.50;99.90;;;;;;4992981;28;20042;-68
2022/10/27 01:58:15;;;;;;;31.60;18.27;;;9.50;99.90;;;;;;4992747;28;20038;-68
2022/10/27 02:00:55;;;;;;;34.50;19.83;;;9.50;99.90;;;;;;4992783;28;20050;-70
2022/10/27 02:03:29;;;;;;;33.58;20.15;;;9.40;99.90;;;;;;4975561;28;20078;-69
2022/10/27 02:06:07;;;;;;;32.70;19.92;;;9.40;99.90;;;;;;4991637;28;20045;-70
2022/10/27 02:08:42;;;;;;;38.70;19.35;;;9.40;99.90;;;;;;4992583;28;20044;-70
2022/10/27 02:11:11;;;;;;;31.35;17.98;;;9.30;99.90;;;;;;4975098;28;20050;-70
2022/10/27 02:13:42;;;;;;;28.35;16.70;;;9.30;99.90;;;;;;4992379;28;20651;-70
2022/10/27 02:16:14;;;;;;;25.63;15.70;;;9.30;99.90;;;;;;4974078;28;20511;-69
2022/10/27 02:18:47;;;;;;;29.73;14.73;;;9.30;99.90;;;;;;4991590;28;20038;-69
2022/10/27 02:21:17;;;;;;;27.88;16.27;;;9.30;99.90;;;;;;4992452;28;20067;-69
2022/10/27 02:23:44;;;;;;;28.30;14.65;;;9.30;99.90;;;;;;4991915;28;20046;-69
2022/10/27 02:26:23;;;;;;;26.88;15.80;;;9.20;99.90;;;;;;4990658;28;20526;-70
2022/10/27 02:28:56;;;;;;;26.27;15.27;;;9.20;99.90;;;;;;4992052;28;20038;-70
2022/10/27 02:31:28;;;;;;;23.60;14.65;;;9.20;99.90;;;;;;4992013;28;20117;-69
2022/10/27 02:33:58;;;;;;;25.50;14.98;;;9.20;99.90;;;;;;4991906;28;20053;-70
2022/10/27 02:36:25;;;;;;;25.95;15.18;;;9.20;99.90;;;;;;4990633;28;20050;-70
2022/10/27 02:38:53;;;;;;;29.45;14.77;;;9.30;99.90;;;;;;4991849;28;20085;-70
2022/10/27 02:41:20;;;;;;;27.13;13.50;;;9.30;99.90;;;;;;4991611;28;20061;-70
2022/10/27 02:43:47;;;;;;;25.17;14.35;;;9.20;99.90;;;;;;4991725;28;20043;-70
2022/10/27 02:46:14;;;;;;;24.58;13.40;;;9.20;99.90;;;;;;4990993;28;20038;-69
2022/10/27 02:48:41;;;;;;;24.70;14.02;;;9.20;99.90;;;;;;4991702;28;20046;-69
2022/10/27 02:51:10;;;;;;;27.50;14.82;;;9.30;99.90;;;;;;4991127;28;20049;-69
2022/10/27 02:53:37;;;;;;;27.13;14.32;;;9.20;99.90;;;;;;4991500;28;20072;-69
2022/10/27 02:56:06;;;;;;;23.73;13.95;;;9.10;99.90;;;;;;4990896;28;20046;-69
2022/10/27 02:58:33;;;;;;;27.95;15.07;;;9.00;99.90;;;;;;4991327;28;20114;-69
2022/10/27 03:01:00;;;;;;;26.73;14.48;;;8.90;99.90;;;;;;4990283;28;20573;-70
2022/10/27 03:03:28;;;;;;;22.95;14.38;;;8.90;99.90;;;;;;4992265;28;20042;-70
2022/10/27 03:05:55;;;;;;;24.52;14.88;;;8.80;99.90;;;;;;4973840;28;20399;-70
2022/10/27 03:08:24;;;;;;;21.50;13.60;;;8.90;99.90;;;;;;4991580;28;20049;-69
2022/10/27 03:10:51;;;;;;;25.38;14.15;;;8.90;99.90;;;;;;4990668;28;20041;-69
2022/10/27 03:13:19;;;;;;;22.48;13.85;;;8.90;99.90;;;;;;4989681;28;20501;-69
2022/10/27 03:15:46;;;;;;;25.13;13.20;;;9.00;99.90;;;;;;4990765;28;20042;-70
2022/10/27 03:18:13;;;;;;;25.45;13.68;;;9.00;99.90;;;;;;4991294;28;20379;-69
2022/10/27 03:20:40;;;;;;;24.88;13.27;;;9.00;99.90;;;;;;4991544;28;20121;-69
2022/10/27 03:23:08;;;;;;;32.15;16.38;;;9.10;99.90;;;;;;4990248;28;20049;-69
2022/10/27 03:25:42;;;;;;;30.30;16.23;;;9.10;99.90;;;;;;4972968;28;20642;-69
2022/10/27 03:28:09;;;;;;;27.13;15.07;;;9.00;99.90;;;;;;4991170;28;20034;-69
2022/10/27 03:30:36;;;;;;;25.15;15.48;;;9.00;99.90;;;;;;4992859;28;20054;-69
2022/10/27 03:33:04;;;;;;;26.63;15.55;;;8.90;99.90;;;;;;4977353;28;20038;-70
2022/10/27 03:35:32;;;;;;;23.95;14.73;;;9.00;99.90;;;;;;4993893;28;20470;-69
2022/10/27 03:38:01;;;;;;;26.20;15.00;;;9.00;99.90;;;;;;4994922;28;20061;-69
2022/10/27 03:40:30;;;;;;;31.27;16.73;;;9.00;99.90;;;;;;4994993;28;20121;-69
2022/10/27 03:42:59;;;;;;;28.50;17.23;;;8.90;99.90;;;;;;4994819;28;20509;-69
2022/10/27 03:45:27;;;;;;;32.28;17.35;;;9.00;99.90;;;;;;4994069;28;20042;-70
2022/10/27 03:48:01;;;;;;;34.58;16.25;;;8.90;99.90;;;;;;4976904;28;20498;-69
2022/10/27 03:50:28;;;;;;;33.90;15.98;;;8.80;99.90;;;;;;4994777;28;20121;-69
2022/10/27 03:52:55;;;;;;;30.02;16.77;;;8.80;99.90;;;;;;4994937;28;20065;-69
2022/10/27 03:55:23;;;;;;;29.90;16.83;;;8.70;99.90;;;;;;4975880;28;20398;-70
2022/10/27 03:57:51;;;;;;;33.72;17.35;;;8.70;99.90;;;;;;4994191;28;20414;-69
2022/10/27 04:00:20;;;;;;;32.20;16.95;;;8.70;99.90;;;;;;4994718;28;20042;-69
2022/10/27 04:02:47;;;;;;;31.33;16.83;;;8.80;99.90;;;;;;4993496;28;20038;-69
2022/10/27 04:05:15;;;;;;;25.63;16.30;;;8.80;99.90;;;;;;4994570;28;20039;-69
2022/10/27 04:07:42;;;;;;;25.10;16.23;;;8.80;99.90;;;;;;4993867;28;20057;-69
2022/10/27 04:10:09;;;;;;;29.45;16.55;;;8.80;99.90;;;;;;4994622;28;20045;-69
2022/10/27 04:12:37;;;;;;;28.98;16.52;;;8.90;99.90;;;;;;4994344;28;20038;-69
2022/10/27 04:15:05;;;;;;;29.55;16.88;;;8.90;99.90;;;;;;4994528;28;20053;-69
2022/10/27 04:17:33;;;;;;;31.52;18.25;;;8.90;99.90;;;;;;4993762;28;20647;-69
2022/10/27 04:20:01;;;;;;;29.17;17.35;;;8.80;99.90;;;;;;4994466;28;20042;-69
2022/10/27 04:22:28;;;;;;;28.08;17.55;;;8.90;99.90;;;;;;4994137;28;20045;-68
2022/10/27 04:24:55;;;;;;;29.55;17.33;;;8.80;99.90;;;;;;4992784;28;20044;-68
2022/10/27 04:27:22;;;;;;;30.92;17.77;;;8.80;99.90;;;;;;4992262;28;20050;-68
2022/10/27 04:29:49;;;;;;;31.63;17.48;;;8.80;99.90;;;;;;4993466;28;20049;-68
2022/10/27 04:32:16;;;;;;;29.48;17.55;;;8.80;99.90;;;;;;4993970;28;20482;-67
2022/10/27 04:34:45;;;;;;;33.45;18.85;;;8.80;99.90;;;;;;4993684;28;20042;-67
2022/10/27 04:37:12;;;;;;;33.40;19.33;;;8.80;99.90;;;;;;4993240;28;20042;-67
2022/10/27 04:39:40;;;;;;;30.75;20.08;;;8.70;99.90;;;;;;4993716;28;20038;-67
2022/10/27 04:42:07;;;;;;;36.10;20.40;;;8.70;99.90;;;;;;4993494;28;20121;-68
2022/10/27 04:44:34;;;;;;;38.97;22.50;;;8.60;99.90;;;;;;4993403;28;20038;-67
2022/10/27 04:47:02;;;;;;;37.13;19.05;;;8.60;99.90;;;;;;4993064;28;20034;-68
2022/10/27 04:49:29;;;;;;;30.52;18.23;;;8.60;99.90;;;;;;4993833;28;20062;-68
2022/10/27 04:51:58;;;;;;;34.53;20.05;;;8.60;99.90;;;;;;4993388;28;20104;-68
2022/10/27 04:54:25;;;;;;;36.15;19.40;;;8.60;99.90;;;;;;4993705;28;20046;-67
2022/10/27 04:56:52;;;;;;;36.00;20.20;;;8.60;99.90;;;;;;4993389;28;20045;-67
2022/10/27 04:59:19;;;;;;;33.28;21.83;;;8.60;99.90;;;;;;4994287;28;20039;-68
2022/10/27 05:01:46;;;;;;;48.95;27.33;;;8.60;99.90;;;;;;4994250;28;20039;-68
2022/10/27 05:04:13;;;;;;;37.53;24.02;;;8.60;99.90;;;;;;4994607;28;20073;-67
2022/10/27 05:06:41;;;;;;;40.03;24.17;;;8.50;99.90;;;;;;4994645;28;20046;-68
2022/10/27 05:09:09;;;;;;;46.28;23.80;;;8.40;99.90;;;;;;4993721;28;20125;-68
2022/10/27 05:11:37;;;;;;;41.47;23.55;;;8.50;99.90;;;;;;4994436;28;20398;-67
2022/10/27 05:14:04;;;;;;;40.47;23.75;;;8.50;99.90;;;;;;4994169;28;20053;-67
2022/10/27 05:16:32;;;;;;;51.13;31.73;;;8.60;99.90;;;;;;4994094;28;20467;-67
2022/10/27 05:18:59;;;;;;;48.08;29.23;;;8.60;99.90;;;;;;4993030;28;20058;-67
2022/10/27 05:21:26;;;;;;;66.25;37.17;;;8.60;99.90;;;;;;4992674;28;20039;-67
2022/10/27 05:23:53;;;;;;;62.83;34.50;;;8.60;99.90;;;;;;4992359;28;20454;-68
2022/10/27 05:26:21;;;;;;;62.53;32.70;;;8.60;99.90;;;;;;4971810;28;20099;-69
2022/10/27 05:28:49;;;;;;;60.33;30.33;;;8.50;99.90;;;;;;4990211;28;20433;-68
2022/10/27 05:31:16;;;;;;;58.22;27.63;;;8.50;99.90;;;;;;4991618;28;20072;-68
2022/10/27 05:33:43;;;;;;;48.10;25.63;;;8.50;99.90;;;;;;4991503;28;20053;-67
2022/10/27 05:36:10;;;;;;;46.03;26.65;;;8.50;99.90;;;;;;4988686;28;20038;-69
2022/10/27 05:38:38;;;;;;;37.85;20.77;;;8.60;99.90;;;;;;4990123;28;20478;-68
2022/10/27 05:41:05;;;;;;;31.83;20.17;;;8.60;99.90;;;;;;4991057;28;20046;-67
2022/10/27 05:43:34;;;;;;;43.05;24.58;;;8.60;99.90;;;;;;4991277;28;20046;-68
2022/10/27 05:46:02;;;;;;;45.15;26.00;;;8.60;99.90;;;;;;4990801;28;20042;-67
2022/10/27 05:48:29;;;;;;;50.38;27.42;;;8.70;99.90;;;;;;4990315;28;20042;-67
2022/10/27 05:50:56;;;;;;;45.58;27.38;;;8.70;99.90;;;;;;4991312;28;20038;-67
2022/10/27 05:53:24;;;;;;;47.78;27.15;;;8.80;99.90;;;;;;4990564;28;20053;-67
2022/10/27 05:55:53;;;;;;;48.08;27.33;;;8.80;99.90;;;;;;4990404;28;20052;-67
2022/10/27 05:58:21;;;;;;;42.90;24.92;;;8.80;99.90;;;;;;4991325;28;20049;-67
2022/10/27 06:00:50;;;;;;;45.38;25.67;;;8.90;99.90;;;;;;4991688;28;20046;-67
2022/10/27 06:03:20;;;;;;;40.65;23.17;;;9.00;99.90;;;;;;4991382;28;20043;-68
2022/10/27 06:05:48;;;;;;;44.65;21.92;;;9.00;99.90;;;;;;4990695;28;20042;-67
2022/10/27 06:08:15;;;;;;;50.20;23.48;;;9.10;99.90;;;;;;4990783;28;20043;-67
2022/10/27 06:10:42;;;;;;;44.58;23.67;;;9.20;99.90;;;;;;4990767;28;20050;-68
2022/10/27 06:13:12;;;;;;;51.67;29.98;;;9.30;99.90;;;;;;4989587;28;20129;-67
2022/10/27 06:15:39;;;;;;;49.20;26.63;;;9.40;99.90;;;;;;4990332;28;20046;-67
2022/10/27 06:18:08;;;;;;;42.83;25.50;;;9.40;99.90;;;;;;4990889;28;20042;-67
2022/10/27 06:20:36;;;;;;;45.53;27.55;;;9.50;99.90;;;;;;4990843;28;20037;-67
2022/10/27 06:23:03;;;;;;;41.53;24.77;;;9.60;99.90;;;;;;4990544;28;20046;-67
2022/10/27 06:25:30;;;;;;;44.13;23.77;;;9.70;99.90;;;;;;4949544;28;1178346;-67
2022/10/27 06:27:57;;;;;;;44.75;23.17;;;10.00;99.90;;;;;;4991768;28;20486;-67
2022/10/27 06:30:25;;;;;;;45.90;24.70;;;10.10;99.90;;;;;;4991565;28;20061;-67
2022/10/27 06:32:52;;;;;;;41.90;23.48;;;10.30;99.90;;;;;;4990802;28;20530;-68
2022/10/27 06:35:21;;;;;;;40.75;23.48;;;10.40;99.90;;;;;;4991348;28;20045;-67
2022/10/27 06:37:48;;;;;;;45.95;22.90;;;10.60;99.90;;;;;;4989137;28;20034;-67
2022/10/27 06:40:17;;;;;;;46.03;24.25;;;10.80;99.90;;;;;;4991445;28;20117;-67
2022/10/27 06:42:45;;;;;;;42.38;23.95;;;10.80;99.90;;;;;;4991580;28;20140;-67
2022/10/27 06:45:13;;;;;;;46.70;26.65;;;10.90;99.90;;;;;;4973893;28;20169;-67
2022/10/27 06:47:40;;;;;;;50.13;26.52;;;11.00;99.90;;;;;;4971207;28;20038;-67
2022/10/27 06:50:08;;;;;;;46.67;25.67;;;11.10;99.90;;;;;;4972933;28;20039;-69
2022/10/27 06:52:38;;;;;;;46.47;26.02;;;11.30;99.90;;;;;;4974351;28;20490;-68
2022/10/27 06:55:06;;;;;;;73.85;28.52;;;11.60;99.90;;;;;;4975372;28;20129;-68
2022/10/27 06:57:40;;;;;;;45.53;26.85;;;11.70;99.90;;;;;;4972233;28;20035;-69
2022/10/27 07:00:10;;;;;;;43.40;25.90;;;11.80;99.90;;;;;;4972177;28;20043;-66
2022/10/27 07:02:37;;;;;;;48.33;25.25;;;11.90;99.90;;;;;;4976118;28;20117;-67
2022/10/27 07:05:05;;;;;;;42.53;25.17;;;12.10;99.90;;;;;;4985842;28;20031;-66
2022/10/27 07:07:33;;;;;;;31.77;21.33;;;12.20;99.90;;;;;;4988457;28;20069;-68
2022/10/27 07:10:01;;;;;;;36.40;21.30;;;12.30;99.90;;;;;;4982277;28;20079;-67
2022/10/27 07:12:29;;;;;;;36.30;20.60;;;12.50;99.90;;;;;;4991199;28;20053;-67
2022/10/27 07:14:56;;;;;;;46.90;20.25;;;12.80;99.90;;;;;;4964450;28;20053;-67
2022/10/27 07:17:23;;;;;;;29.20;17.67;;;13.10;99.90;;;;;;4970862;28;20051;-65
2022/10/27 07:19:50;;;;;;;24.25;15.23;;;13.30;99.90;;;;;;4971296;28;20110;-68
2022/10/27 07:22:17;;;;;;;25.33;14.73;;;13.50;99.90;;;;;;4971231;28;20053;-67
2022/10/27 07:24:45;;;;;;;25.15;15.15;;;13.70;99.90;;;;;;4990927;28;20055;-67
2022/10/27 07:27:13;;;;;;;26.80;17.45;;;14.00;99.90;;;;;;4990089;28;20097;-68
2022/10/27 07:29:40;;;;;;;26.50;14.15;;;14.20;99.90;;;;;;4991029;28;20146;-68
2022/10/27 07:32:07;;;;;;;28.58;13.75;;;14.50;99.90;;;;;;4990842;28;20437;-71
2022/10/27 07:34:35;;;;;;;31.02;15.10;;;14.80;99.90;;;;;;4990569;28;20078;-71
2022/10/27 07:37:02;;;;;;;28.38;15.82;;;15.20;99.90;;;;;;4990235;28;20042;-71
2022/10/27 07:39:29;;;;;;;41.22;24.13;;;15.10;99.90;;;;;;4989677;28;20070;-71
2022/10/27 07:41:56;;;;;;;31.55;16.73;;;15.00;99.90;;;;;;4971299;28;20521;-72
2022/10/27 07:44:25;;;;;;;44.83;25.13;;;14.60;99.90;;;;;;4971049;28;20134;-71
2022/10/27 07:46:53;;;;;;;28.48;17.20;;;14.40;99.90;;;;;;4970821;28;20047;-71
2022/10/27 07:49:20;;;;;;;29.17;17.95;;;14.50;99.90;;;;;;4971288;28;20520;-71
2022/10/27 07:51:47;;;;;;;29.90;17.35;;;14.80;99.90;;;;;;4971431;28;20069;-71
2022/10/27 07:54:14;;;;;;;31.05;17.00;;;15.20;99.90;;;;;;4971696;28;20069;-70
2022/10/27 07:56:41;;;;;;;30.67;18.65;;;15.60;99.90;;;;;;4970897;28;20231;-72
2022/10/27 07:59:09;;;;;;;25.48;17.20;;;15.70;99.90;;;;;;4971189;28;20054;-71
2022/10/27 08:01:38;;;;;;;27.70;17.40;;;15.80;99.90;;;;;;4971108;28;20138;-72
2022/10/27 08:04:05;;;;;;;32.85;22.27;;;15.80;99.90;;;;;;4954384;28;20050;-70
2022/10/27 08:06:33;;;;;;;46.85;28.38;;;15.80;99.90;;;;;;4988992;28;20034;-71
2022/10/27 08:09:00;;;;;;;38.72;22.50;;;15.70;99.90;;;;;;4990791;28;20097;-71
2022/10/27 08:11:28;;;;;;;36.83;22.77;;;15.80;99.90;;;;;;4990589;28;20043;-70
2022/10/27 08:13:55;;;;;;;44.42;26.52;;;16.00;99.90;;;;;;4990311;28;20039;-70
2022/10/27 08:16:22;;;;;;;43.70;25.92;;;16.10;99.90;;;;;;4991591;28;20046;-71
2022/10/27 08:18:51;;;;;;;38.30;22.38;;;16.20;99.90;;;;;;4994118;28;20038;-71
2022/10/27 08:21:18;;;;;;;37.50;22.45;;;16.30;99.90;;;;;;4993426;28;20069;-71
2022/10/27 08:23:45;;;;;;;36.85;21.50;;;16.40;99.90;;;;;;4993844;28;20512;-71
2022/10/27 08:26:13;;;;;;;41.65;24.40;;;16.50;99.90;;;;;;4991726;28;20058;-71
2022/10/27 08:28:40;;;;;;;27.60;18.20;;;16.60;99.90;;;;;;4993870;28;20030;-71
2022/10/27 08:31:07;;;;;;;29.23;16.92;;;16.60;99.90;;;;;;4993874;28;20129;-71
2022/10/27 08:33:35;;;;;;;29.63;19.17;;;16.60;99.90;;;;;;4993847;28;20065;-71
2022/10/27 08:36:03;;;;;;;28.63;18.38;;;16.60;99.90;;;;;;4992711;28;20050;-70
2022/10/27 08:38:32;;;;;;;31.67;19.63;;;16.70;99.90;;;;;;4994149;28;20031;-71
2022/10/27 08:41:14;;;;;;;34.63;19.85;;;16.80;99.90;;;;;;4992137;28;20042;-71
2022/10/27 08:43:52;;;;;;;26.25;18.10;;;16.90;99.90;;;;;;4974313;28;20411;-70
2022/10/27 08:46:25;;;;;;;59.00;20.65;;;17.00;99.90;;;;;;4973998;28;20114;-72
2022/10/27 08:48:58;;;;;;;31.65;21.00;;;17.00;99.90;;;;;;4974204;28;20117;-70
2022/10/27 08:51:28;;;;;;;29.40;18.58;;;17.20;99.90;;;;;;4974165;28;20513;-70
2022/10/27 08:53:55;;;;;;;29.35;18.63;;;17.20;99.90;;;;;;4973951;28;20499;-70
2022/10/27 08:56:26;;;;;;;27.08;18.63;;;17.30;99.90;;;;;;4973457;28;20042;-70
2022/10/27 08:58:53;;;;;;;31.73;18.85;;;17.40;99.90;;;;;;4974257;28;20071;-71
2022/10/27 09:01:31;;;;;;;30.60;19.55;;;17.40;99.90;;;;;;4974127;28;20117;-70
2022/10/27 09:04:23;;;;;;;30.45;18.77;;;17.50;99.90;;;;;;4974048;28;20049;-71
2022/10/27 09:07:03;;;;;;;31.67;18.88;;;17.50;99.90;;;;;;4977963;28;20038;-70
2022/10/27 09:09:38;;;;;;;37.35;19.60;;;17.60;99.90;;;;;;4992204;28;20391;-70
2022/10/27 09:12:16;;;;;;;31.27;19.95;;;17.70;99.90;;;;;;4973484;28;20141;-70
2022/10/27 09:15:09;;;;;;;34.78;22.42;;;17.90;99.90;;;;;;4982755;28;20038;-70
2022/10/27 09:17:41;;;;;;;37.30;19.48;;;18.00;99.90;;;;;;4992398;28;20074;-70
2022/10/27 09:20:16;;;;;;;37.40;19.33;;;18.10;99.90;;;;;;4991520;28;20049;-70
2022/10/27 09:22:44;;;;;;;30.35;18.80;;;18.20;99.90;;;;;;4977715;28;20197;-70
2022/10/27 09:25:18;;;;;;;37.08;22.10;;;18.30;99.90;;;;;;4992860;28;20057;-70
2022/10/27 09:27:49;;;;;;;33.05;20.35;;;18.30;99.90;;;;;;4991817;28;20088;-70
2022/10/27 09:30:16;;;;;;;35.72;19.83;;;18.40;99.90;;;;;;4991477;28;20064;-70
2022/10/27 09:32:48;;;;;;;30.42;20.02;;;18.50;99.90;;;;;;4992597;28;20056;-70
2022/10/27 09:35:17;;;;;;;34.45;19.38;;;18.60;99.90;;;;;;4992484;28;20044;-70
2022/10/27 09:37:46;;;;;;;31.15;18.98;;;18.80;99.90;;;;;;4992038;28;20053;-71
2022/10/27 09:40:15;;;;;;;28.65;17.73;;;18.80;99.90;;;;;;4992366;28;20069;-70
2022/10/27 09:42:42;;;;;;;26.25;17.10;;;19.00;99.90;;;;;;4992733;28;20038;-70
2022/10/27 09:45:15;;;;;;;28.80;17.15;;;19.00;99.90;;;;;;4992532;28;20034;-70
2022/10/27 09:47:46;;;;;;;29.33;18.08;;;19.10;99.90;;;;;;4974611;28;20050;-70
2022/10/27 09:50:21;;;;;;;29.00;16.98;;;19.20;99.90;;;;;;4992186;28;20500;-70
2022/10/27 09:52:50;;;;;;;196.00;49.30;;;19.30;99.90;;;;;;4992185;28;20045;-70
2022/10/27 09:55:19;;;;;;;28.60;18.45;;;19.30;99.90;;;;;;4992025;28;20041;-70
2022/10/27 09:57:48;;;;;;;36.97;24.48;;;19.50;99.90;;;;;;4992161;28;20042;-70
2022/10/27 10:00:27;;;;;;;29.52;19.38;;;19.50;99.90;;;;;;4991778;28;20085;-70
2022/10/27 10:03:01;;;;;;;32.03;19.63;;;19.50;99.90;;;;;;4992143;28;20075;-70
2022/10/27 10:05:31;;;;;;;28.15;17.77;;;19.50;99.90;;;;;;4991686;28;20042;-70
2022/10/27 10:08:22;;;;;;;32.75;19.33;;;19.60;99.90;;;;;;4991916;28;20042;-72
2022/10/27 10:11:00;;;;;;;30.48;17.92;;;19.60;99.90;;;;;;4992123;28;20046;-70
2022/10/27 10:13:28;;;;;;;31.58;21.13;;;19.80;99.90;;;;;;4992460;28;20125;-70
2022/10/27 10:16:08;;;;;;;25.58;16.13;;;19.90;99.90;;;;;;4990958;28;20483;-71
2022/10/27 10:18:37;;;;;;;25.20;15.35;;;19.80;99.90;;;;;;4991492;28;20069;-70
2022/10/27 10:21:07;;;;;;;38.95;25.80;;;19.80;99.90;;;;;;4991452;28;20056;-70
2022/10/27 10:23:37;;;;;;;31.92;17.15;;;19.90;99.90;;;;;;4991014;28;20100;-70
2022/10/27 10:26:15;;;;;;;29.38;18.20;;;19.90;99.90;;;;;;4990536;28;20498;-69
2022/10/27 10:28:44;;;;;;;22.65;14.45;;;19.90;99.90;;;;;;4973084;28;20073;-70
2022/10/27 10:31:15;;;;;;;24.65;14.98;;;20.00;99.90;;;;;;4991326;28;20061;-70
2022/10/27 10:33:46;;;;;;;33.50;15.77;;;20.20;99.90;;;;;;4990352;28;20053;-70
2022/10/27 10:36:20;;;;;;;26.67;16.55;;;20.30;99.90;;;;;;4989486;28;20101;-70
2022/10/27 10:38:54;;;;;;;28.42;16.50;;;20.40;99.90;;;;;;4990969;28;20049;-70
2022/10/27 10:41:21;;;;;;;23.00;14.55;;;20.50;99.90;;;;;;4991744;28;20394;-70
2022/10/27 10:44:08;;;;;;;24.67;14.48;;;20.50;99.90;;;;;;4991406;28;20073;-70
2022/10/27 10:46:39;;;;;;;22.73;15.13;;;20.50;99.90;;;;;;4990528;28;20491;-70
2022/10/27 10:49:19;;;;;;;27.73;13.82;;;20.50;99.90;;;;;;4991262;28;20050;-71
2022/10/27 10:51:51;;;;;;;22.08;15.23;;;20.50;99.90;;;;;;4991315;28;20121;-70
2022/10/27 10:54:24;;;;;;;30.73;16.90;;;20.60;99.90;;;;;;4971680;28;20043;-71
2022/10/27 10:56:53;;;;;;;23.70;13.88;;;20.60;99.90;;;;;;4975469;28;20109;-70
2022/10/27 10:59:24;;;;;;;26.20;14.63;;;20.70;99.90;;;;;;4990964;28;20486;-70
2022/10/27 11:01:56;;;;;;;20.38;13.27;;;20.70;99.90;;;;;;4990967;28;20085;-70
2022/10/27 11:04:26;;;;;;;40.10;13.93;;;20.60;99.90;;;;;;4990830;28;20038;-70
2022/10/27 11:07:04;;;;;;;26.90;13.40;;;20.70;99.90;;;;;;4990302;28;20058;-70
2022/10/27 11:09:38;;;;;;;23.08;12.15;;;20.80;99.90;;;;;;4991047;28;20039;-71
2022/10/27 11:12:11;;;;;;;20.38;11.80;;;20.80;99.90;;;;;;4991092;28;20069;-70
2022/10/27 11:14:38;;;;;;;22.17;14.32;;;20.80;99.90;;;;;;4990848;28;20039;-69
2022/10/27 11:17:06;;;;;;;23.27;13.23;;;20.90;99.90;;;;;;4990308;28;20247;-70
2022/10/27 11:19:39;;;;;;;24.67;12.20;;;21.00;99.90;;;;;;4990828;28;20483;-70
2022/10/27 11:22:12;;;;;;;19.42;11.50;;;21.00;99.90;;;;;;4990946;28;20034;-70
2022/10/27 11:24:46;;;;;;;14.57;8.50;;;21.10;99.90;;;;;;4990825;28;20085;-71
2022/10/27 11:27:17;;;;;;;17.38;8.98;;;21.10;99.90;;;;;;4990169;28;20125;-71
2022/10/27 11:29:51;;;;;;;17.17;8.63;;;21.10;99.90;;;;;;4991049;28;20121;-71
2022/10/27 11:32:24;;;;;;;17.27;10.75;;;21.10;99.90;;;;;;4990900;28;20042;-70
2022/10/27 11:35:01;;;;;;;19.25;7.90;;;21.20;99.90;;;;;;4990881;28;20069;-70
2022/10/27 11:37:36;;;;;;;13.85;7.82;;;21.30;99.90;;;;;;4990748;28;20042;-70
2022/10/27 11:40:11;;;;;;;15.95;8.13;;;21.30;99.90;;;;;;4993548;28;20035;-70
2022/10/27 11:42:43;;;;;;;13.00;6.88;;;21.30;99.90;;;;;;4982235;28;20474;-70
2022/10/27 11:45:20;;;;;;;15.15;9.68;;;21.30;99.90;;;;;;4995963;28;20501;-70
2022/10/27 11:47:50;;;;;;;19.33;9.43;;;21.40;99.90;;;;;;4991568;28;20210;-71
2022/10/27 11:50:24;;;;;;;15.82;9.30;;;21.40;99.90;;;;;;4991125;28;20038;-70
2022/10/27 11:52:54;;;;;;;14.40;8.30;;;21.40;99.90;;;;;;4994611;28;20045;-70
2022/10/27 11:55:32;;;;;;;17.95;8.20;;;21.50;99.90;;;;;;4994119;28;20117;-71
2022/10/27 11:58:05;;;;;;;17.08;7.65;;;21.50;99.90;;;;;;4994616;28;20125;-70
2022/10/27 12:00:40;;;;;;;17.35;8.02;;;21.50;99.90;;;;;;4994463;28;20117;-70
2022/10/27 12:03:32;;;;;;;18.20;9.18;;;21.50;99.90;;;;;;5001722;28;20052;-70
2022/10/27 12:06:09;;;;;;;16.83;9.20;;;21.50;99.90;;;;;;4995910;28;20038;-70
2022/10/27 12:08:42;;;;;;;16.27;7.97;;;21.50;99.90;;;;;;5002113;28;20043;-70
2022/10/27 12:11:21;;;;;;;23.55;9.13;;;21.50;99.90;;;;;;5002706;28;20048;-70
2022/10/27 12:13:57;;;;;;;14.15;7.40;;;21.50;99.00;;;;;;5011305;28;20042;-70
2022/10/27 12:16:32;;;;;;;14.98;8.65;;;21.60;98.60;;;;;;4993516;28;20046;-70
2022/10/27 12:19:06;;;;;;;17.77;8.98;;;21.70;98.70;;;;;;4997011;28;20038;-70
2022/10/27 12:21:41;;;;;;;21.75;10.80;;;21.70;98.00;;;;;;5013340;28;20038;-71
2022/10/27 12:24:15;;;;;;;14.10;6.97;;;21.70;97.80;;;;;;5013460;28;20077;-70
2022/10/27 12:26:48;;;;;;;14.50;7.32;;;21.60;97.00;;;;;;5013010;28;20058;-70
2022/10/27 12:29:18;;;;;;;21.60;9.68;;;21.60;96.60;;;;;;4996138;28;20042;-70
2022/10/27 12:31:51;;;;;;;16.10;8.23;;;21.60;96.40;;;;;;5013863;28;20048;-70
2022/10/27 12:34:21;;;;;;;14.10;8.52;;;21.60;96.20;;;;;;5013638;28;20044;-70
2022/10/27 12:36:52;;;;;;;20.77;9.18;;;21.70;96.40;;;;;;4986296;28;20046;-70
2022/10/27 12:39:29;;;;;;;16.40;7.90;;;21.70;95.70;;;;;;4994030;28;20039;-73
2022/10/27 12:42:07;;;;;;;11.27;7.60;;;21.80;95.30;;;;;;4993634;28;20133;-73
2022/10/27 12:44:44;;;;;;;16.42;9.55;;;21.80;94.90;;;;;;4974293;28;20145;-72
2022/10/27 12:47:47;;;;;;;16.65;8.48;;;21.80;95.20;;;;;;4974650;28;20048;-73